createdAt,value
2022-09-13T00:00:48.062Z,98.98
2022-09-13T00:01:48.103Z,99.08
2022-09-13T00:02:48.022Z,99.18
2022-09-13T00:03:49.063Z,99.29
2022-09-13T00:04:48.034Z,99.29
2022-09-13T00:05:48.068Z,99.39
2022-09-13T00:06:47.960Z,99.49
2022-09-13T00:07:47.973Z,99.49
2022-09-13T00:08:48.103Z,99.59
2022-09-13T00:09:47.912Z,99.79
2022-09-13T00:10:47.995Z,99.79
2022-09-13T00:11:47.921Z,99.69
2022-09-13T00:12:47.905Z,99.59
2022-09-13T00:13:47.924Z,99.59
2022-09-13T00:14:47.872Z,99.69
2022-09-13T00:15:47.844Z,99.90
2022-09-13T00:16:47.876Z,99.79
2022-09-13T00:17:47.834Z,99.90
2022-09-13T00:18:47.956Z,99.90
2022-09-13T00:19:47.791Z,99.90
2022-09-13T00:20:47.772Z,99.90
2022-09-13T00:21:47.809Z,99.95
2022-09-13T00:22:47.764Z,99.84
2022-09-13T00:23:47.775Z,99.84
2022-09-13T00:24:47.725Z,99.84
2022-09-13T00:25:47.714Z,99.74
2022-09-13T00:26:47.706Z,99.64
2022-09-13T00:27:47.695Z,99.64
2022-09-13T00:28:47.728Z,99.54
2022-09-13T00:29:47.667Z,99.64
2022-09-13T00:30:47.660Z,99.54
2022-09-13T00:31:47.817Z,99.43
2022-09-13T00:32:47.625Z,99.54
2022-09-13T00:33:47.646Z,99.64
2022-09-13T00:34:47.670Z,99.74
2022-09-13T00:35:47.610Z,99.74
2022-09-13T00:36:47.567Z,99.89
2022-09-13T00:37:48.607Z,99.89
2022-09-13T00:38:47.551Z,99.79
2022-09-13T00:39:49.796Z,99.99
2022-09-13T00:40:47.532Z,99.79
2022-09-13T00:41:47.589Z,99.68
2022-09-13T00:42:47.548Z,99.68
2022-09-13T00:43:47.576Z,99.79
2022-09-13T00:44:47.520Z,99.68
2022-09-13T00:45:47.571Z,99.79
2022-09-13T00:46:47.526Z,99.79
2022-09-13T00:47:47.482Z,99.68
2022-09-13T00:48:47.409Z,99.68
2022-09-13T00:49:47.451Z,99.68
2022-09-13T00:50:47.460Z,99.68
2022-09-13T00:51:47.469Z,99.79
2022-09-13T00:52:47.402Z,99.79
2022-09-13T00:53:47.369Z,99.89
2022-09-13T00:55:57.566Z,99.89
2022-09-13T00:56:57.615Z,99.99
2022-09-13T00:57:57.547Z,99.99
2022-09-13T00:58:57.516Z,99.99
2022-09-13T00:59:57.538Z,99.99
2022-09-13T01:00:57.515Z,99.84
2022-09-13T01:01:57.617Z,99.63
2022-09-13T01:02:57.491Z,99.63
2022-09-13T01:03:57.568Z,99.52
2022-09-13T01:04:57.479Z,99.32
2022-09-13T01:05:57.429Z,99.43
2022-09-13T01:06:57.502Z,99.63
2022-09-13T01:07:57.418Z,99.84
2022-09-13T01:08:57.515Z,99.73
2022-09-13T01:09:57.370Z,99.84
2022-09-13T01:10:57.422Z,99.93
2022-09-13T01:11:57.408Z,99.99
2022-09-13T01:12:57.360Z,99.99
2022-09-13T01:13:57.431Z,99.99
2022-09-13T01:14:57.311Z,99.99
2022-09-13T01:15:57.347Z,99.99
2022-09-13T01:16:57.270Z,99.99
2022-09-13T01:17:59.329Z,99.99
2022-09-13T01:18:57.252Z,99.99
2022-09-13T01:19:57.242Z,99.99
2022-09-13T01:20:57.281Z,99.99
2022-09-13T01:21:57.222Z,99.99
2022-09-13T01:22:57.332Z,99.99
2022-09-13T01:23:57.212Z,99.93
2022-09-13T01:24:57.193Z,99.73
2022-09-13T01:25:57.155Z,99.63
2022-09-13T01:26:57.231Z,99.52
2022-09-13T01:27:57.190Z,99.52
2022-09-13T01:28:57.233Z,99.52
2022-09-13T01:29:57.125Z,99.52
2022-09-13T01:30:57.132Z,99.63
2022-09-13T01:31:57.216Z,99.63
2022-09-13T01:32:57.184Z,99.63
2022-09-13T01:33:57.175Z,99.63
2022-09-13T01:34:58.096Z,99.63
2022-09-13T01:35:57.027Z,99.52
2022-09-13T01:36:57.075Z,99.43
2022-09-13T01:37:57.135Z,99.43
2022-09-13T01:38:57.096Z,99.52
2022-09-13T01:39:57.150Z,99.43
2022-09-13T01:40:56.966Z,99.52
2022-09-13T01:41:57.025Z,99.52
2022-09-13T01:42:57.065Z,99.47
2022-09-13T01:43:57.027Z,99.47
2022-09-13T01:44:56.925Z,99.47
2022-09-13T01:45:57.021Z,99.68
2022-09-13T01:47:19.925Z,99.78
2022-09-13T01:47:56.894Z,99.88
2022-09-13T01:48:56.953Z,99.98
2022-09-13T01:49:56.858Z,99.99
2022-09-13T01:50:56.875Z,99.99
2022-09-13T01:51:56.866Z,99.99
2022-09-13T01:52:56.922Z,99.99
2022-09-13T01:53:56.900Z,99.99
2022-09-13T01:54:56.807Z,99.99
2022-09-13T01:55:56.819Z,99.99
2022-09-13T01:56:56.820Z,99.98
2022-09-13T01:57:56.848Z,99.98
2022-09-13T01:58:56.823Z,99.98
2022-09-13T01:59:56.752Z,99.88
2022-09-13T02:00:56.787Z,99.98
2022-09-13T02:01:56.727Z,99.99
2022-09-13T02:02:56.789Z,99.99
2022-09-13T02:03:56.669Z,99.99
2022-09-13T02:04:56.764Z,99.99
2022-09-13T02:05:56.659Z,99.99
2022-09-13T02:06:56.626Z,99.99
2022-09-13T02:07:56.709Z,99.98
2022-09-13T02:08:56.618Z,99.88
2022-09-13T02:09:57.619Z,99.88
2022-09-13T02:10:56.595Z,99.78
2022-09-13T02:11:56.624Z,99.57
2022-09-13T02:12:56.552Z,99.47
2022-09-13T02:13:56.611Z,99.47
2022-09-13T02:14:56.530Z,99.37
2022-09-13T02:15:56.524Z,99.57
2022-09-13T02:16:56.531Z,99.57
2022-09-13T02:17:56.500Z,99.47
2022-09-13T02:18:56.541Z,99.57
2022-09-13T02:19:56.452Z,99.68
2022-09-13T02:20:56.445Z,99.82
2022-09-13T02:21:56.420Z,99.72
2022-09-13T02:22:56.515Z,99.72
2022-09-13T02:23:56.396Z,99.82
2022-09-13T02:24:56.393Z,99.93
2022-09-13T02:25:56.392Z,99.93
2022-09-13T02:26:56.408Z,99.99
2022-09-13T02:27:56.363Z,99.99
2022-09-13T02:28:56.423Z,99.99
2022-09-13T02:29:56.418Z,99.99
2022-09-13T02:30:56.323Z,99.99
2022-09-13T02:31:56.402Z,99.99
2022-09-13T02:32:56.384Z,99.99
2022-09-13T02:33:56.336Z,99.99
2022-09-13T02:34:56.364Z,99.99
2022-09-13T02:35:56.265Z,99.99
2022-09-13T02:36:56.229Z,99.99
2022-09-13T02:37:56.323Z,99.99
2022-09-13T02:38:56.205Z,99.88
2022-09-13T02:39:56.341Z,99.68
2022-09-13T02:40:56.196Z,99.57
2022-09-13T02:41:56.157Z,99.57
2022-09-13T02:42:56.243Z,99.68
2022-09-13T02:43:56.155Z,99.68
2022-09-13T02:44:56.225Z,99.78
2022-09-13T02:45:56.195Z,99.99
2022-09-13T02:46:56.113Z,99.99
2022-09-13T02:47:56.156Z,99.98
2022-09-13T02:48:58.137Z,99.68
2022-09-13T02:49:56.166Z,99.57
2022-09-13T02:50:56.167Z,99.41
2022-09-13T02:51:56.056Z,99.31
2022-09-13T02:52:56.027Z,99.21
2022-09-13T02:53:57.113Z,99.27
2022-09-13T02:54:55.999Z,99.21
2022-09-13T02:55:56.082Z,99.01
2022-09-13T02:56:56.008Z,98.90
2022-09-13T02:57:55.958Z,99.11
2022-09-13T02:58:56.008Z,98.90
2022-09-13T02:59:55.950Z,98.70
2022-09-13T03:00:56.091Z,98.80
2022-09-13T03:01:55.943Z,98.90
2022-09-13T03:02:55.959Z,99.21
2022-09-13T03:03:55.888Z,99.21
2022-09-13T03:04:55.884Z,99.41
2022-09-13T03:05:56.882Z,99.52
2022-09-13T03:06:55.847Z,99.62
2022-09-13T03:07:55.912Z,99.62
2022-09-13T03:08:55.822Z,99.21
2022-09-13T03:09:55.809Z,99.21
2022-09-13T03:10:55.889Z,99.11
2022-09-13T03:11:55.771Z,99.01
2022-09-13T03:12:55.834Z,99.01
2022-09-13T03:13:55.789Z,99.05
2022-09-13T03:14:55.760Z,99.15
2022-09-13T03:15:55.818Z,99.26
2022-09-13T03:16:57.802Z,99.36
2022-09-13T03:17:55.751Z,99.46
2022-09-13T03:18:55.733Z,99.46
2022-09-13T03:19:55.751Z,99.46
2022-09-13T03:20:55.779Z,99.46
2022-09-13T03:21:55.684Z,99.36
2022-09-13T03:22:55.662Z,99.26
2022-09-13T03:23:55.685Z,99.26
2022-09-13T03:24:55.635Z,99.46
2022-09-13T03:25:55.693Z,99.87
2022-09-13T03:26:55.704Z,99.98
2022-09-13T03:27:55.653Z,99.99
2022-09-13T03:28:55.614Z,99.99
2022-09-13T03:29:55.546Z,99.99
2022-09-13T03:30:55.646Z,99.99
2022-09-13T03:31:55.673Z,99.99
2022-09-13T03:32:55.585Z,99.99
2022-09-13T03:33:55.628Z,99.99
2022-09-13T03:34:55.484Z,99.99
2022-09-13T03:35:55.484Z,99.82
2022-09-13T03:36:55.566Z,99.82
2022-09-13T03:37:55.497Z,99.62
2022-09-13T03:38:55.436Z,99.62
2022-09-13T03:39:55.511Z,99.82
2022-09-13T03:40:55.495Z,99.93
2022-09-13T03:41:55.488Z,99.93
2022-09-13T03:42:55.429Z,99.62
2022-09-13T03:43:56.425Z,99.31
2022-09-13T03:44:55.407Z,99.01
2022-09-13T03:45:55.455Z,98.70
2022-09-13T03:46:55.427Z,98.49
2022-09-13T03:47:55.355Z,98.44
2022-09-13T03:48:55.377Z,98.33
2022-09-13T03:49:55.295Z,98.44
2022-09-13T04:03:34.178Z,99.61
2022-09-13T04:04:34.170Z,99.51
2022-09-13T04:05:34.147Z,99.41
2022-09-13T04:06:34.146Z,99.30
2022-09-13T04:07:34.173Z,99.20
2022-09-13T04:08:34.115Z,99.41
2022-09-13T04:09:34.107Z,99.51
2022-09-13T04:10:34.099Z,99.71
2022-09-13T04:11:34.069Z,99.82
2022-09-13T04:12:34.088Z,99.82
2022-09-13T04:13:34.058Z,99.91
2022-09-13T04:14:34.039Z,99.41
2022-09-13T04:15:34.055Z,99.30
2022-09-13T04:16:34.114Z,99.20
2022-09-13T04:17:33.999Z,99.04
2022-09-13T04:18:33.979Z,99.15
2022-09-13T04:19:33.961Z,99.35
2022-09-13T04:20:33.948Z,99.35
2022-09-13T04:21:33.931Z,99.35
2022-09-13T04:22:33.947Z,99.45
2022-09-13T04:23:33.899Z,99.45
2022-09-13T04:24:33.909Z,99.45
2022-09-13T04:25:33.889Z,99.55
2022-09-13T04:26:33.860Z,99.76
2022-09-13T04:27:33.883Z,99.76
2022-09-13T04:28:33.919Z,99.86
2022-09-13T04:29:33.839Z,99.99
2022-09-13T04:30:33.849Z,99.99
2022-09-13T04:31:33.930Z,99.99
2022-09-13T04:32:33.814Z,99.99
2022-09-13T04:33:33.782Z,99.99
2022-09-13T04:34:33.761Z,99.99
2022-09-13T04:35:33.751Z,99.99
2022-09-13T04:36:33.733Z,99.86
2022-09-13T04:37:33.742Z,99.96
2022-09-13T04:38:33.751Z,99.76
2022-09-13T04:39:33.723Z,99.76
2022-09-13T04:40:33.692Z,99.66
2022-09-13T04:41:33.687Z,99.60
2022-09-13T04:42:33.693Z,99.70
2022-09-13T04:43:33.663Z,99.99
2022-09-13T04:44:33.646Z,99.99
2022-09-13T04:45:33.689Z,99.99
2022-09-13T04:46:33.633Z,99.99
2022-09-13T04:47:33.625Z,99.99
2022-09-13T04:48:33.603Z,99.86
2022-09-13T04:49:33.576Z,99.66
2022-09-13T04:50:33.559Z,99.66
2022-09-13T04:51:33.546Z,99.66
2022-09-13T04:52:33.546Z,99.86
2022-09-13T04:53:33.527Z,99.86
2022-09-13T04:54:33.504Z,99.99
2022-09-13T04:55:33.487Z,99.96
2022-09-13T04:56:33.485Z,99.99
2022-09-13T04:57:33.498Z,99.99
2022-09-13T04:58:33.455Z,99.99
2022-09-13T04:59:33.426Z,99.99
2022-09-13T05:00:33.430Z,99.99
2022-09-13T05:01:34.440Z,99.99
2022-09-13T05:02:33.463Z,99.99
2022-09-13T05:03:33.396Z,99.99
2022-09-13T05:04:33.375Z,99.99
2022-09-13T05:05:33.368Z,99.99
2022-09-13T05:06:33.326Z,99.99
2022-09-13T05:07:33.333Z,99.99
2022-09-13T05:08:33.316Z,99.99
2022-09-13T05:09:33.438Z,99.99
2022-09-13T05:10:33.287Z,99.99
2022-09-13T05:11:34.269Z,99.99
2022-09-13T05:12:33.367Z,99.99
2022-09-13T05:13:33.269Z,99.99
2022-09-13T05:14:33.247Z,99.99
2022-09-13T05:15:33.227Z,99.99
2022-09-13T05:16:33.207Z,99.99
2022-09-13T05:17:33.236Z,99.99
2022-09-13T05:18:33.195Z,99.96
2022-09-13T05:19:33.189Z,99.86
2022-09-13T05:20:33.188Z,99.86
2022-09-13T05:21:33.160Z,99.86
2022-09-13T05:22:33.140Z,99.76
2022-09-13T05:23:33.129Z,99.86
2022-09-13T05:24:33.109Z,99.96
2022-09-13T05:25:33.102Z,99.96
2022-09-13T05:26:33.060Z,99.99
2022-09-13T05:27:33.069Z,99.99
2022-09-13T05:28:33.069Z,99.99
2022-09-13T05:29:33.049Z,99.99
2022-09-13T05:30:33.019Z,99.99
2022-09-13T05:31:33.078Z,99.99
2022-09-13T05:32:33.005Z,99.99
2022-09-13T05:33:33.007Z,99.99
2022-09-13T05:34:33.001Z,99.99
2022-09-13T05:35:32.987Z,99.99
2022-09-13T05:36:32.940Z,99.99
2022-09-13T05:37:32.960Z,99.99
2022-09-13T05:38:32.933Z,99.99
2022-09-13T05:39:43.973Z,99.93
2022-09-13T05:40:33.920Z,99.93
2022-09-13T05:41:32.892Z,99.82
2022-09-13T05:42:33.863Z,99.98
2022-09-13T05:43:32.888Z,99.78
2022-09-13T05:44:32.861Z,99.78
2022-09-13T05:45:32.857Z,99.88
2022-09-13T05:46:33.001Z,99.73
2022-09-13T05:47:32.832Z,99.63
2022-09-13T05:48:32.805Z,99.73
2022-09-13T05:49:32.804Z,99.48
2022-09-13T05:50:57.226Z,99.07
2022-09-13T05:51:33.775Z,98.66
2022-09-13T05:52:32.779Z,98.25
2022-09-13T05:53:32.763Z,98.11
2022-09-13T05:54:32.724Z,97.90
2022-09-13T05:55:32.737Z,97.90
2022-09-13T05:56:32.685Z,97.80
2022-09-13T05:57:32.693Z,97.55
2022-09-13T05:58:32.694Z,97.20
2022-09-13T05:59:32.664Z,96.89
2022-09-13T06:00:32.625Z,96.38
2022-09-13T06:01:32.830Z,96.28
2022-09-13T06:02:32.722Z,95.87
2022-09-13T06:03:32.627Z,95.97
2022-09-13T06:04:32.595Z,95.93
2022-09-13T06:05:32.593Z,95.93
2022-09-13T06:06:32.557Z,96.03
2022-09-13T06:07:32.536Z,96.23
2022-09-13T06:08:32.557Z,96.54
2022-09-13T06:09:32.527Z,96.44
2022-09-13T06:10:32.528Z,96.44
2022-09-13T06:11:32.522Z,96.75
2022-09-13T06:12:32.496Z,96.64
2022-09-13T06:13:32.483Z,96.60
2022-09-13T06:14:32.460Z,96.60
2022-09-13T06:15:32.472Z,96.60
2022-09-13T06:16:32.488Z,96.80
2022-09-13T06:17:32.429Z,96.86
2022-09-13T06:18:32.397Z,96.86
2022-09-13T06:19:32.395Z,96.86
2022-09-13T06:20:32.358Z,96.96
2022-09-13T06:21:32.359Z,96.55
2022-09-13T06:22:32.393Z,95.94
2022-09-13T06:23:32.360Z,95.53
2022-09-13T06:24:32.350Z,95.53
2022-09-13T06:25:32.329Z,95.74
2022-09-13T06:26:32.320Z,95.84
2022-09-13T06:27:32.320Z,95.94
2022-09-13T06:28:36.666Z,96.35
2022-09-13T06:29:33.282Z,96.25
2022-09-13T06:30:32.263Z,96.45
2022-09-13T06:31:32.343Z,96.81
2022-09-13T06:32:32.232Z,97.02
2022-09-13T06:33:32.222Z,96.51
2022-09-13T06:34:32.191Z,96.20
2022-09-13T06:35:32.182Z,96.41
2022-09-13T06:36:32.152Z,96.51
2022-09-13T06:37:32.152Z,96.61
2022-09-13T06:38:32.153Z,96.61
2022-09-13T06:39:32.128Z,97.02
2022-09-13T06:40:32.167Z,97.12
2022-09-13T06:41:32.083Z,97.07
2022-09-13T06:42:32.094Z,97.38
2022-09-13T06:43:32.072Z,97.48
2022-09-13T06:44:32.086Z,97.38
2022-09-13T06:45:32.056Z,97.38
2022-09-13T06:46:32.138Z,97.03
2022-09-13T06:47:32.024Z,96.92
2022-09-13T06:48:33.049Z,96.83
2022-09-13T06:49:33.006Z,96.72
2022-09-13T06:50:31.993Z,96.72
2022-09-13T06:51:31.994Z,96.83
2022-09-13T06:52:31.966Z,96.78
2022-09-13T06:53:31.954Z,96.68
2022-09-13T06:54:31.955Z,96.58
2022-09-13T06:55:31.916Z,96.58
2022-09-13T06:56:31.926Z,96.27
2022-09-13T06:57:31.916Z,96.27
2022-09-13T06:58:31.865Z,96.43
2022-09-13T06:59:31.890Z,96.12
2022-09-13T07:00:31.927Z,95.62
2022-09-13T07:01:31.963Z,95.26
2022-09-13T07:02:31.846Z,94.86
2022-09-13T07:03:31.823Z,94.66
2022-09-13T07:04:31.797Z,94.51
2022-09-13T07:05:31.789Z,94.41
2022-09-13T07:06:31.789Z,94.10
2022-09-13T07:07:31.757Z,94.00
2022-09-13T07:08:31.731Z,93.55
2022-09-13T07:09:31.757Z,93.35
2022-09-13T07:10:31.710Z,93.25
2022-09-13T07:11:31.720Z,93.35
2022-09-13T07:12:31.673Z,93.25
2022-09-13T07:13:31.690Z,92.84
2022-09-13T07:14:31.670Z,92.80
2022-09-13T07:15:31.674Z,92.90
2022-09-13T07:16:31.655Z,92.90
2022-09-13T07:17:31.780Z,92.80
2022-09-13T07:18:31.604Z,92.60
2022-09-13T07:19:31.612Z,92.35
2022-09-13T07:20:31.590Z,92.05
2022-09-13T07:21:31.581Z,91.94
2022-09-13T07:22:31.560Z,91.64
2022-09-13T07:23:31.541Z,91.74
2022-09-13T07:24:31.531Z,90.89
2022-09-13T07:25:31.512Z,90.38
2022-09-13T07:26:31.520Z,90.38
2022-09-13T07:27:31.492Z,90.79
2022-09-13T07:28:35.250Z,90.03
2022-09-13T07:29:31.466Z,89.94
2022-09-13T07:30:31.433Z,90.44
2022-09-13T07:31:31.501Z,90.70
2022-09-13T07:32:31.416Z,90.70
2022-09-13T07:33:31.434Z,90.80
2022-09-13T07:34:31.392Z,90.40
2022-09-13T07:35:31.393Z,89.48
2022-09-13T07:36:31.381Z,89.79
2022-09-13T07:37:31.356Z,90.09
2022-09-13T07:38:31.326Z,90.40
2022-09-13T07:39:31.337Z,90.36
2022-09-13T07:40:31.304Z,90.25
2022-09-13T07:41:31.352Z,90.05
2022-09-13T07:42:31.276Z,89.45
2022-09-13T07:43:31.286Z,89.00
2022-09-13T07:44:31.268Z,88.70
2022-09-13T07:45:31.257Z,88.79
2022-09-13T07:46:31.307Z,88.29
2022-09-13T07:47:31.236Z,87.68
2022-09-13T07:48:33.506Z,87.08
2022-09-13T07:49:31.258Z,86.33
2022-09-13T07:50:31.209Z,87.04
2022-09-13T07:51:31.176Z,87.04
2022-09-13T07:52:31.179Z,87.34
2022-09-13T07:53:31.153Z,86.99
2022-09-13T07:54:31.152Z,86.49
2022-09-13T07:55:31.124Z,85.78
2022-09-13T07:56:31.101Z,85.17
2022-09-13T07:57:31.146Z,85.48
2022-09-13T07:58:31.098Z,85.58
2022-09-13T07:59:32.101Z,84.77
2022-09-13T08:00:32.055Z,85.34
2022-09-13T08:01:31.132Z,85.64
2022-09-13T08:02:31.185Z,86.95
2022-09-13T08:03:31.056Z,86.30
2022-09-13T08:04:36.126Z,86.21
2022-09-13T08:05:30.995Z,85.50
2022-09-13T08:06:30.984Z,85.30
2022-09-13T08:07:30.975Z,84.49
2022-09-13T08:08:30.945Z,83.98
2022-09-13T08:09:30.944Z,84.35
2022-09-13T08:10:30.926Z,84.45
2022-09-13T08:11:30.905Z,84.65
2022-09-13T08:12:30.906Z,84.45
2022-09-13T08:13:30.886Z,84.35
2022-09-13T08:14:30.906Z,83.70
2022-09-13T08:15:30.881Z,83.30
2022-09-13T08:16:30.869Z,83.30
2022-09-13T08:17:30.846Z,82.09
2022-09-13T08:18:30.840Z,82.90
2022-09-13T08:19:30.848Z,82.50
2022-09-13T08:20:30.809Z,82.29
2022-09-13T08:21:30.808Z,82.79
2022-09-13T08:22:30.768Z,83.10
2022-09-13T08:23:30.754Z,83.20
2022-09-13T08:24:30.758Z,82.19
2022-09-13T08:25:30.709Z,81.28
2022-09-13T08:26:30.702Z,81.28
2022-09-13T08:27:30.700Z,81.38
2022-09-13T08:28:30.711Z,81.45
2022-09-13T08:29:30.692Z,82.35
2022-09-13T08:30:30.661Z,81.95
2022-09-13T08:31:30.662Z,82.35
2022-09-13T08:32:30.630Z,82.86
2022-09-13T08:33:30.644Z,82.62
2022-09-13T08:34:30.633Z,82.42
2022-09-13T08:35:30.604Z,82.62
2022-09-13T08:36:31.587Z,83.02
2022-09-13T08:37:30.573Z,82.01
2022-09-13T08:38:30.571Z,80.80
2022-09-13T08:39:33.387Z,82.42
2022-09-13T08:40:30.532Z,81.77
2022-09-13T08:41:30.525Z,81.87
2022-09-13T08:42:30.522Z,81.98
2022-09-13T08:43:30.511Z,80.73
2022-09-13T08:44:30.493Z,80.93
2022-09-13T08:45:30.485Z,80.93
2022-09-13T08:46:31.491Z,80.58
2022-09-13T08:47:30.469Z,80.79
2022-09-13T08:48:30.437Z,80.39
2022-09-13T08:49:30.446Z,79.44
2022-09-13T08:50:30.399Z,79.24
2022-09-13T08:51:30.421Z,76.63
2022-09-13T08:52:30.383Z,77.33
2022-09-13T08:53:30.372Z,77.83
2022-09-13T08:54:30.366Z,78.64
2022-09-13T08:55:30.377Z,76.19
2022-09-13T08:56:30.317Z,75.02
2022-09-13T08:57:30.305Z,75.52
2022-09-13T08:58:30.300Z,75.92
2022-09-13T08:59:30.336Z,77.20
2022-09-13T09:00:30.291Z,75.09
2022-09-13T09:01:30.263Z,74.98
2022-09-13T09:02:30.293Z,75.29
2022-09-13T09:03:30.231Z,76.69
2022-09-13T09:04:30.287Z,77.46
2022-09-13T09:05:30.240Z,74.65
2022-09-13T09:06:30.174Z,74.44
2022-09-13T09:07:30.180Z,73.38
2022-09-13T09:08:30.189Z,73.98
2022-09-13T09:09:30.161Z,74.68
2022-09-13T09:10:30.141Z,75.38
2022-09-13T09:11:30.118Z,75.99
2022-09-13T09:12:30.132Z,73.91
2022-09-13T09:13:30.101Z,74.62
2022-09-13T09:14:30.099Z,76.53
2022-09-13T09:15:30.138Z,76.39
2022-09-13T09:16:30.061Z,76.59
2022-09-13T09:17:30.041Z,75.38
2022-09-13T09:18:30.043Z,75.59
2022-09-13T09:19:30.033Z,74.58
2022-09-13T09:20:31.013Z,74.08
2022-09-13T09:21:30.007Z,74.28
2022-09-13T09:22:29.994Z,75.09
2022-09-13T09:23:29.984Z,74.88
2022-09-13T09:24:29.954Z,74.48
2022-09-13T09:25:29.966Z,74.88
2022-09-13T09:26:29.924Z,76.39
2022-09-13T09:27:30.905Z,76.09
2022-09-13T09:28:29.927Z,76.15
2022-09-13T09:29:29.897Z,72.97
2022-09-13T09:30:29.914Z,74.18
2022-09-13T09:31:29.863Z,73.58
2022-09-13T09:32:29.856Z,74.18
2022-09-13T09:33:29.838Z,74.18
2022-09-13T09:34:29.826Z,74.58
2022-09-13T09:35:29.815Z,75.89
2022-09-13T09:36:29.817Z,77.59
2022-09-13T09:37:29.787Z,76.89
2022-09-13T09:38:29.775Z,76.69
2022-09-13T09:39:29.748Z,77.39
2022-09-13T09:40:31.712Z,76.12
2022-09-13T09:41:29.732Z,75.52
2022-09-13T09:42:29.717Z,76.73
2022-09-13T09:43:29.725Z,75.72
2022-09-13T09:44:29.690Z,75.52
2022-09-13T09:45:29.698Z,75.12
2022-09-13T09:46:29.679Z,76.43
2022-09-13T09:47:29.751Z,75.42
2022-09-13T10:03:39.521Z,75.22
2022-09-13T10:04:39.478Z,75.59
2022-09-13T10:05:39.490Z,76.39
2022-09-13T10:06:39.461Z,76.69
2022-09-13T10:07:39.451Z,74.78
2022-09-13T10:08:39.452Z,74.78
2022-09-13T10:09:39.421Z,75.68
2022-09-13T10:10:39.430Z,77.50
2022-09-13T10:11:39.407Z,74.98
2022-09-13T10:12:39.387Z,76.39
2022-09-13T10:13:39.382Z,76.89
2022-09-13T10:14:39.353Z,78.40
2022-09-13T10:15:39.348Z,78.30
2022-09-13T10:16:40.385Z,78.00
2022-09-13T10:17:39.332Z,78.46
2022-09-13T10:18:46.374Z,79.67
2022-09-13T10:19:40.302Z,79.57
2022-09-13T10:20:39.310Z,78.27
2022-09-13T10:21:40.282Z,77.46
2022-09-13T10:22:39.262Z,77.12
2022-09-13T10:23:39.266Z,76.72
2022-09-13T10:24:39.241Z,77.32
2022-09-13T10:25:40.962Z,75.01
2022-09-13T10:26:39.216Z,76.82
2022-09-13T10:27:39.197Z,77.02
2022-09-13T10:28:39.178Z,77.02
2022-09-13T10:29:39.170Z,77.12
2022-09-13T10:30:39.237Z,77.52
2022-09-13T10:31:39.151Z,78.93
2022-09-13T10:32:39.129Z,78.63
2022-09-13T10:33:39.127Z,78.33
2022-09-13T10:34:39.117Z,77.89
2022-09-13T10:35:40.098Z,77.59
2022-09-13T10:36:52.070Z,77.19
2022-09-13T10:37:40.078Z,75.38
2022-09-13T10:38:41.865Z,75.14
2022-09-13T10:39:40.140Z,75.74
2022-09-13T10:40:40.029Z,73.60
2022-09-13T10:41:39.023Z,72.90
2022-09-13T10:42:39.011Z,72.60
2022-09-13T10:43:38.992Z,74.20
2022-09-13T10:44:38.966Z,74.27
2022-09-13T10:45:39.041Z,73.27
2022-09-13T10:46:38.951Z,72.33
2022-09-13T10:47:38.953Z,73.43
2022-09-13T10:48:38.930Z,71.63
2022-09-13T10:49:38.930Z,70.73
2022-09-13T10:50:38.933Z,71.43
2022-09-13T10:51:38.882Z,72.00
2022-09-13T10:52:38.864Z,72.19
2022-09-13T10:53:38.891Z,72.46
2022-09-13T10:54:38.863Z,69.56
2022-09-13T10:55:38.930Z,70.76
2022-09-13T10:56:38.819Z,70.09
2022-09-13T10:57:38.815Z,70.39
2022-09-13T10:58:38.817Z,70.59
2022-09-13T10:59:38.806Z,70.26
2022-09-13T11:00:38.786Z,67.16
2022-09-13T11:01:40.561Z,67.93
2022-09-13T11:02:38.727Z,69.46
2022-09-13T11:03:38.727Z,69.73
2022-09-13T11:04:38.743Z,69.02
2022-09-13T11:05:38.727Z,66.56
2022-09-13T11:06:38.707Z,67.76
2022-09-13T11:07:38.688Z,69.32
2022-09-13T11:08:38.681Z,68.89
2022-09-13T11:09:40.679Z,67.83
2022-09-13T11:10:38.668Z,66.60
2022-09-13T11:11:38.635Z,67.33
2022-09-13T11:12:38.654Z,67.10
2022-09-13T11:13:41.786Z,64.25
2022-09-13T11:14:39.589Z,61.10
2022-09-13T11:15:38.607Z,61.90
2022-09-13T11:16:38.612Z,61.93
2022-09-13T11:17:38.568Z,65.44
2022-09-13T11:18:38.530Z,66.24
2022-09-13T11:19:38.776Z,65.01
2022-09-13T11:20:38.516Z,61.96
2022-09-13T11:21:38.496Z,63.15
2022-09-13T11:22:38.471Z,65.67
2022-09-13T11:23:38.544Z,67.27
2022-09-13T11:24:38.463Z,63.91
2022-09-13T11:25:38.464Z,66.30
2022-09-13T11:26:38.797Z,65.44
2022-09-13T11:27:38.416Z,65.64
2022-09-13T11:28:38.403Z,65.07
2022-09-13T11:29:38.394Z,66.27
2022-09-13T11:30:38.394Z,65.50
2022-09-13T11:31:38.443Z,67.00
2022-09-13T11:32:38.343Z,66.80
2022-09-13T11:33:38.410Z,66.33
2022-09-13T11:34:38.318Z,67.53
2022-09-13T11:35:38.325Z,67.16
2022-09-13T11:36:38.285Z,68.86
2022-09-13T11:37:38.286Z,68.26
2022-09-13T11:38:38.288Z,68.16
2022-09-13T11:39:39.260Z,67.89
2022-09-13T11:40:38.260Z,69.29
2022-09-13T11:41:38.239Z,71.16
2022-09-13T11:42:38.209Z,72.06
2022-09-13T11:43:38.315Z,71.36
2022-09-13T11:44:38.178Z,70.46
2022-09-13T11:45:38.221Z,68.16
2022-09-13T11:46:38.154Z,69.96
2022-09-13T11:47:38.148Z,68.96
2022-09-13T11:48:39.142Z,69.46
2022-09-13T11:49:38.119Z,71.06
2022-09-13T11:50:38.130Z,71.06
2022-09-13T11:51:38.093Z,68.89
2022-09-13T11:52:38.083Z,69.19
2022-09-13T11:53:39.062Z,69.29
2022-09-13T11:54:38.054Z,69.29
2022-09-13T11:55:38.052Z,69.29
2022-09-13T11:56:38.044Z,70.19
2022-09-13T11:57:38.004Z,69.43
2022-09-13T11:58:38.004Z,68.73
2022-09-13T11:59:37.983Z,69.16
2022-09-13T12:00:37.983Z,69.16
2022-09-13T12:01:37.945Z,69.66
2022-09-13T12:02:37.989Z,69.39
2022-09-13T12:03:38.966Z,69.39
2022-09-13T12:04:37.937Z,68.52
2022-09-13T12:05:37.914Z,68.52
2022-09-13T12:06:37.903Z,69.32
2022-09-13T12:07:37.866Z,69.82
2022-09-13T12:08:38.855Z,70.12
2022-09-13T12:09:37.839Z,70.83
2022-09-13T12:10:37.844Z,70.83
2022-09-13T12:11:37.826Z,70.43
2022-09-13T12:12:37.805Z,71.23
2022-09-13T12:13:38.811Z,71.12
2022-09-13T12:14:37.777Z,71.63
2022-09-13T12:15:37.779Z,71.23
2022-09-13T12:16:37.788Z,71.63
2022-09-13T12:17:37.738Z,70.93
2022-09-13T12:18:38.717Z,71.33
2022-09-13T12:19:37.756Z,73.03
2022-09-13T12:20:37.706Z,72.47
2022-09-13T12:21:37.704Z,71.66
2022-09-13T12:22:37.671Z,71.66
2022-09-13T12:23:38.754Z,71.96
2022-09-13T12:24:37.639Z,71.06
2022-09-13T12:25:37.640Z,71.59
2022-09-13T12:26:37.606Z,72.00
2022-09-13T12:27:39.931Z,73.10
2022-09-13T12:28:38.582Z,72.30
2022-09-13T12:29:37.570Z,73.40
2022-09-13T12:30:37.570Z,72.70
2022-09-13T12:31:37.605Z,72.80
2022-09-13T12:32:37.533Z,73.80
2022-09-13T12:33:37.541Z,74.90
2022-09-13T12:34:37.522Z,74.80
2022-09-13T12:35:37.540Z,76.11
2022-09-13T12:36:37.512Z,75.54
2022-09-13T12:37:37.473Z,76.34
2022-09-13T12:38:37.454Z,78.75
2022-09-13T12:39:38.456Z,80.96
2022-09-13T12:40:37.436Z,80.06
2022-09-13T12:41:37.444Z,77.55
2022-09-13T12:42:37.398Z,78.75
2022-09-13T12:43:37.404Z,81.67
2022-09-13T12:44:37.394Z,78.25
2022-09-13T12:45:37.468Z,80.06
2022-09-13T12:46:37.375Z,81.87
2022-09-13T12:47:37.355Z,83.17
2022-09-13T12:48:37.339Z,83.67
2022-09-13T12:49:37.317Z,84.07
2022-09-13T12:50:43.399Z,82.57
2022-09-13T12:51:38.326Z,80.46
2022-09-13T12:52:37.290Z,81.46
2022-09-13T12:53:37.269Z,81.87
2022-09-13T12:54:37.250Z,79.96
2022-09-13T12:55:50.754Z,82.46
2022-09-13T12:56:38.227Z,83.17
2022-09-13T12:57:37.220Z,83.37
2022-09-13T12:58:37.211Z,82.46
2022-09-13T12:59:37.209Z,81.36
2022-09-13T13:00:37.218Z,81.06
2022-09-13T13:01:37.322Z,80.46
2022-09-13T13:02:37.181Z,81.56
2022-09-13T13:03:37.139Z,79.66
2022-09-13T13:04:37.130Z,78.96
2022-09-13T13:05:37.141Z,79.16
2022-09-13T13:06:37.123Z,79.55
2022-09-13T13:07:37.111Z,81.46
2022-09-13T13:08:37.092Z,83.17
2022-09-13T13:09:37.071Z,81.56
2022-09-13T13:10:37.063Z,80.96
2022-09-13T13:11:37.065Z,80.66
2022-09-13T13:12:37.033Z,80.16
2022-09-13T13:13:37.043Z,80.86
2022-09-13T13:14:37.032Z,82.57
2022-09-13T13:15:37.054Z,79.75
2022-09-13T13:16:37.050Z,78.75
2022-09-13T13:17:36.977Z,79.36
2022-09-13T13:18:36.953Z,81.56
2022-09-13T13:19:36.946Z,80.26
2022-09-13T13:20:36.946Z,81.76
2022-09-13T13:21:36.928Z,82.06